Time;durP1;ratioP1;P1;durP2;ratioP2;P2;SDS_P1;SDS_P2;PMS_P1;PMS_P2;Temp;Humidity;BMP_temperature;BMP_pressure;BME280_temperature;BME280_humidity;BME280_pressure;Samples;Min_cycle;Max_cycle;Signal;HPM_P1;HPM_P2
2023/09/02 00:01:01;;;;;;;2.57;2.27;;;16.00;99.90;;;;;;5159441;27;20190;-39
2023/09/02 00:03:27;;;;;;;4.40;2.40;;;16.00;99.90;;;;;;5159878;27;20192;-39
2023/09/02 00:05:55;;;;;;;2.50;2.27;;;16.00;99.90;;;;;;5142259;27;20575;-38
2023/09/02 00:08:21;;;;;;;3.00;2.53;;;16.00;99.90;;;;;;5160041;27;20224;-37
2023/09/02 00:10:47;;;;;;;3.43;2.33;;;16.00;99.90;;;;;;5141115;27;20499;-38
2023/09/02 00:13:12;;;;;;;4.20;3.10;;;16.00;99.90;;;;;;5158041;27;20203;-41
2023/09/02 00:15:38;;;;;;;4.10;2.90;;;15.90;99.90;;;;;;5141317;27;20183;-38
2023/09/02 00:18:04;;;;;;;4.10;2.67;;;15.90;99.90;;;;;;5158008;27;20167;-40
2023/09/02 00:20:29;;;;;;;5.33;3.03;;;16.00;99.90;;;;;;5158597;27;20210;-39
2023/09/02 00:22:56;;;;;;;5.90;3.00;;;15.90;99.90;;;;;;5158083;27;20218;-39
2023/09/02 00:25:22;;;;;;;3.57;2.77;;;15.90;99.90;;;;;;5140473;27;20599;-39
2023/09/02 00:27:48;;;;;;;3.50;2.97;;;15.90;99.90;;;;;;5159114;27;20524;-37
2023/09/02 00:30:14;;;;;;;2.67;2.40;;;15.90;99.90;;;;;;5159669;27;20566;-40
2023/09/02 00:32:40;;;;;;;3.70;2.83;;;15.90;99.90;;;;;;5141713;27;20429;-38
2023/09/02 00:35:05;;;;;;;4.73;3.13;;;15.90;99.90;;;;;;5160383;27;20458;-38
2023/09/02 00:37:31;;;;;;;3.10;2.80;;;15.80;99.90;;;;;;5159681;27;20266;-36
2023/09/02 00:39:57;;;;;;;4.70;3.00;;;15.80;99.90;;;;;;5160308;27;20186;-37
2023/09/02 00:42:24;;;;;;;5.23;3.07;;;15.70;99.90;;;;;;5159906;27;20422;-38
2023/09/02 00:44:49;;;;;;;3.17;2.83;;;15.70;99.90;;;;;;5141227;27;20269;-37
2023/09/02 00:47:15;;;;;;;6.10;3.00;;;15.60;99.90;;;;;;5158864;27;20912;-38
2023/09/02 00:49:41;;;;;;;4.17;3.00;;;15.60;99.90;;;;;;5157282;27;20182;-36
2023/09/02 00:52:06;;;;;;;2.40;2.20;;;15.50;99.90;;;;;;5159497;27;20204;-37
2023/09/02 00:54:33;;;;;;;3.03;2.30;;;15.50;99.90;;;;;;5157117;27;20548;-36
2023/09/02 00:57:01;;;;;;;4.07;2.93;;;15.50;99.90;;;;;;5138970;27;20600;-37
2023/09/02 00:59:27;;;;;;;3.67;2.93;;;15.50;99.90;;;;;;5140254;27;20423;-37
2023/09/02 01:01:55;;;;;;;3.60;2.87;;;15.40;99.90;;;;;;5158379;27;20428;-36
2023/09/02 01:04:21;;;;;;;4.00;2.60;;;15.40;99.90;;;;;;5157632;27;20262;-39
2023/09/02 01:06:47;;;;;;;2.63;2.40;;;15.30;99.90;;;;;;5138197;27;20431;-37
2023/09/02 01:09:13;;;;;;;4.30;3.80;;;15.30;99.90;;;;;;5157687;27;20427;-36
2023/09/02 01:11:38;;;;;;;6.80;3.50;;;15.30;99.90;;;;;;5139016;27;20213;-37
2023/09/02 01:14:04;;;;;;;3.40;3.00;;;15.20;99.90;;;;;;5157274;27;20527;-37
2023/09/02 01:16:31;;;;;;;6.57;3.30;;;15.20;99.90;;;;;;5156356;27;20185;-37
2023/09/02 01:18:57;;;;;;;4.20;2.80;;;15.20;99.90;;;;;;5156198;27;20216;-37
2023/09/02 01:21:29;;;;;;;3.13;2.53;;;15.10;99.90;;;;;;5156411;27;20435;-37
2023/09/02 01:24:00;;;;;;;3.37;2.83;;;15.10;99.90;;;;;;5156284;27;20479;-35
2023/09/02 01:26:45;;;;;;;3.13;2.10;;;15.00;99.90;;;;;;5156050;27;20470;-49
2023/09/02 01:29:12;;;;;;;3.80;3.00;;;15.00;99.90;;;;;;5156584;27;20416;-39
2023/09/02 01:31:38;;;;;;;5.33;3.30;;;14.90;99.90;;;;;;5139066;27;20482;-36
2023/09/02 01:34:06;;;;;;;3.77;2.70;;;14.90;99.90;;;;;;5157863;27;20690;-37
2023/09/02 01:36:33;;;;;;;3.77;2.50;;;14.90;99.90;;;;;;5148103;27;20459;-38
2023/09/02 01:38:59;;;;;;;3.23;2.70;;;14.90;99.90;;;;;;5137539;27;20802;-36
2023/09/02 01:41:27;;;;;;;2.90;2.60;;;14.90;99.90;;;;;;5119324;27;20421;-36
2023/09/02 01:43:53;;;;;;;3.27;2.37;;;14.90;99.90;;;;;;5138081;27;20187;-37
2023/09/02 01:46:19;;;;;;;3.97;3.20;;;14.90;1.00;;;;;;5100698;27;20792;-36
2023/09/02 01:48:46;;;;;;;3.10;2.80;;;14.80;1.00;;;;;;5119231;27;20477;-37
2023/09/02 01:51:12;;;;;;;3.37;3.07;;;14.80;99.90;;;;;;5137210;27;20223;-38
2023/09/02 01:53:38;;;;;;;3.37;3.07;;;14.80;99.90;;;;;;5118954;27;20417;-37
2023/09/02 01:56:03;;;;;;;2.93;2.63;;;14.80;99.90;;;;;;5134642;27;20580;-36
2023/09/02 01:58:29;;;;;;;3.57;2.40;;;14.80;1.00;;;;;;5115239;27;20186;-37
2023/09/02 02:00:55;;;;;;;5.00;2.67;;;14.80;1.00;;;;;;5133103;27;20214;-37
2023/09/02 02:03:25;;;;;;;3.90;2.70;;;14.70;1.00;;;;;;5131563;27;20290;-47
2023/09/02 02:05:53;;;;;;;5.23;3.20;;;14.70;1.00;;;;;;5131551;27;20723;-36
2023/09/02 02:08:44;;;;;;;3.73;2.67;;;14.70;1.00;;;;;;5131281;27;20892;-38
2023/09/02 02:11:11;;;;;;;5.30;3.00;;;14.70;1.00;;;;;;5133766;27;20463;-37
2023/09/02 02:13:38;;;;;;;5.50;2.80;;;14.60;1.00;;;;;;5116873;28;20450;-35
2023/09/02 02:16:04;;;;;;;4.50;2.97;;;14.70;1.00;;;;;;5135321;28;20425;-37
2023/09/02 02:18:30;;;;;;;3.20;2.77;;;14.60;1.00;;;;;;5136106;28;20425;-39
2023/09/02 02:21:02;;;;;;;4.80;3.00;;;14.60;1.00;;;;;;5136186;28;20790;-37
2023/09/02 02:23:28;;;;;;;3.60;2.60;;;14.60;1.00;;;;;;5136372;28;20495;-37
2023/09/02 02:34:06;;;;;;;4.30;2.93;;;14.50;1.00;;;;;;5154200;27;20317;-38
2023/09/02 02:36:32;;;;;;;3.10;2.50;;;14.40;1.00;;;;;;5156737;27;20274;-37
2023/09/02 02:38:57;;;;;;;2.90;2.60;;;14.40;1.00;;;;;;5156968;27;20175;-37
2023/09/02 02:41:23;;;;;;;4.20;2.87;;;14.40;1.00;;;;;;5155743;27;20543;-38
2023/09/02 02:43:48;;;;;;;5.57;2.80;;;14.30;1.00;;;;;;5157019;27;20544;-38
2023/09/02 02:46:14;;;;;;;3.13;2.77;;;14.40;1.00;;;;;;5156584;27;20198;-38
2023/09/02 02:48:40;;;;;;;3.50;3.20;;;14.30;1.00;;;;;;5157392;27;20186;-37
2023/09/02 02:51:05;;;;;;;4.97;3.20;;;14.30;1.00;;;;;;5156686;27;20550;-37
2023/09/02 02:53:32;;;;;;;3.90;2.63;;;14.30;1.00;;;;;;5159987;27;20424;-36
2023/09/02 02:56:02;;;;;;;3.90;2.63;;;14.30;1.00;;;;;;5161981;27;20276;-37
2023/09/02 02:58:28;;;;;;;2.80;2.47;;;14.30;1.00;;;;;;5162504;27;20407;-36
2023/09/02 03:01:04;;;;;;;3.10;2.80;;;14.30;1.00;;;;;;5160633;27;20435;-37
2023/09/02 03:03:31;;;;;;;3.40;2.73;;;14.30;1.00;;;;;;5161431;27;20426;-37
2023/09/02 03:05:58;;;;;;;6.97;2.87;;;14.30;1.00;;;;;;5161402;27;20423;-36
2023/09/02 03:08:24;;;;;;;2.90;2.50;;;14.20;1.00;;;;;;5161363;27;20801;-36
2023/09/02 03:11:01;;;;;;;3.33;2.83;;;14.20;1.00;;;;;;5161180;27;20486;-37
2023/09/02 03:13:28;;;;;;;4.33;2.60;;;14.20;1.00;;;;;;5143349;27;20254;-38
2023/09/02 03:15:54;;;;;;;3.60;2.60;;;14.20;1.00;;;;;;5142307;27;20773;-38
2023/09/02 03:18:20;;;;;;;3.80;2.97;;;14.20;1.00;;;;;;5161350;27;20468;-37
2023/09/02 03:20:46;;;;;;;2.67;2.40;;;14.20;1.00;;;;;;5160341;27;20440;-40
2023/09/02 03:23:12;;;;;;;3.57;2.50;;;14.10;1.00;;;;;;5142754;27;20446;-36
2023/09/02 03:25:38;;;;;;;2.60;2.40;;;14.20;1.00;;;;;;5159994;27;20218;-37
2023/09/02 03:28:04;;;;;;;3.20;2.67;;;14.10;1.00;;;;;;5160826;27;20420;-43
2023/09/02 03:30:30;;;;;;;3.60;2.70;;;14.10;1.00;;;;;;5159474;27;20214;-38
2023/09/02 03:32:56;;;;;;;3.93;2.90;;;14.10;1.00;;;;;;5160176;27;20555;-37
2023/09/02 03:35:22;;;;;;;2.10;1.90;;;14.10;1.00;;;;;;5141700;27;20519;-37
2023/09/02 03:37:47;;;;;;;2.90;2.60;;;14.10;1.00;;;;;;5140406;27;20506;-37
2023/09/02 03:40:13;;;;;;;3.10;2.00;;;14.10;1.00;;;;;;5159990;27;20438;-36
2023/09/02 03:42:39;;;;;;;3.00;2.50;;;14.10;1.00;;;;;;5160166;27;20194;-37
2023/09/02 03:45:05;;;;;;;2.73;2.37;;;14.10;1.00;;;;;;5159336;27;20182;-38
2023/09/02 03:47:31;;;;;;;3.23;2.37;;;14.10;1.00;;;;;;5160080;27;20452;-37
2023/09/02 03:49:58;;;;;;;4.60;2.03;;;14.00;1.00;;;;;;5159202;27;20562;-38
2023/09/02 03:52:24;;;;;;;2.77;2.43;;;14.00;1.00;;;;;;5160454;27;20408;-37
2023/09/02 03:54:49;;;;;;;3.30;2.57;;;14.00;1.00;;;;;;5159685;27;20432;-37
2023/09/02 03:57:15;;;;;;;3.27;2.70;;;13.90;1.00;;;;;;5160065;27;20552;-37
2023/09/02 03:59:41;;;;;;;3.50;3.20;;;13.90;1.00;;;;;;5160183;27;20197;-36
2023/09/02 04:02:07;;;;;;;3.00;2.70;;;13.90;1.00;;;;;;5160145;27;20610;-38
2023/09/02 04:04:33;;;;;;;3.00;2.70;;;13.80;1.00;;;;;;5159763;27;20182;-37
2023/09/02 04:06:58;;;;;;;3.70;2.87;;;13.80;1.00;;;;;;5159431;27;20438;-37
2023/09/02 04:09:24;;;;;;;3.10;2.80;;;13.80;1.00;;;;;;5160692;27;20428;-37
2023/09/02 04:11:50;;;;;;;3.67;2.70;;;13.80;1.00;;;;;;5159244;27;20217;-37
2023/09/02 04:14:15;;;;;;;3.00;2.70;;;13.80;1.00;;;;;;5160455;27;20254;-37
2023/09/02 04:16:41;;;;;;;3.50;2.43;;;13.80;1.00;;;;;;5158665;27;20261;-37
2023/09/02 04:19:07;;;;;;;2.90;2.60;;;13.80;1.00;;;;;;5157890;27;20194;-36
2023/09/02 04:21:32;;;;;;;3.70;2.70;;;13.80;1.00;;;;;;5157662;27;20210;-38
2023/09/02 04:23:58;;;;;;;4.17;2.57;;;13.80;1.00;;;;;;5158856;27;20439;-35
2023/09/02 04:26:24;;;;;;;3.43;2.70;;;13.80;1.00;;;;;;5157939;27;20198;-36
2023/09/02 04:28:50;;;;;;;2.80;2.27;;;13.80;1.00;;;;;;5158038;27;20505;-37
2023/09/02 04:31:34;;;;;;;3.60;2.97;;;13.80;1.00;;;;;;5159679;27;20499;-37
2023/09/02 04:34:00;;;;;;;3.77;2.70;;;13.80;1.00;;;;;;5158931;27;20507;-36
2023/09/02 04:36:25;;;;;;;3.20;2.90;;;13.80;1.00;;;;;;5157681;27;20460;-37
2023/09/02 04:38:51;;;;;;;6.10;3.20;;;13.80;1.00;;;;;;5157321;27;20488;-37
2023/09/02 04:41:17;;;;;;;2.50;2.30;;;13.80;1.00;;;;;;5158501;27;20429;-40
2023/09/02 04:43:43;;;;;;;4.30;2.93;;;13.80;1.00;;;;;;5157003;27;20274;-37
2023/09/02 04:46:09;;;;;;;4.13;2.53;;;13.80;1.00;;;;;;5156919;27;20875;-37
2023/09/02 04:48:34;;;;;;;4.47;2.73;;;13.80;1.00;;;;;;5157197;27;20450;-37
2023/09/02 04:51:03;;;;;;;2.97;2.67;;;13.80;1.00;;;;;;5156628;27;20261;-37
2023/09/02 04:53:29;;;;;;;3.90;2.83;;;13.80;1.00;;;;;;5157878;27;20290;-37
2023/09/02 04:55:55;;;;;;;3.20;2.33;;;13.90;1.00;;;;;;5156639;27;20510;-38
2023/09/02 04:58:23;;;;;;;3.90;2.83;;;13.90;1.00;;;;;;5155355;27;20185;-37
2023/09/02 05:00:49;;;;;;;3.83;3.27;;;13.90;1.00;;;;;;5155258;27;20428;-40
2023/09/02 05:03:14;;;;;;;3.73;2.80;;;13.90;1.00;;;;;;5156022;27;20450;-38
2023/09/02 05:05:40;;;;;;;3.30;2.50;;;13.90;1.00;;;;;;5154264;27;20691;-37
2023/09/02 05:08:06;;;;;;;3.67;2.60;;;13.90;1.00;;;;;;5156136;27;20198;-37
2023/09/02 05:10:32;;;;;;;5.27;3.80;;;14.00;1.00;;;;;;5155891;27;20710;-37
2023/09/02 05:12:58;;;;;;;3.20;2.90;;;14.00;1.00;;;;;;5157067;27;20424;-37
2023/09/02 05:15:24;;;;;;;5.33;3.10;;;14.00;1.00;;;;;;5154866;27;20424;-37
2023/09/02 05:17:50;;;;;;;3.00;2.70;;;14.00;1.00;;;;;;5156148;27;20186;-37
2023/09/02 05:20:16;;;;;;;4.93;3.27;;;14.00;1.00;;;;;;5155122;27;20656;-37
2023/09/02 05:22:42;;;;;;;5.13;3.47;;;14.10;1.00;;;;;;5156307;27;20427;-37
2023/09/02 05:25:08;;;;;;;4.30;2.77;;;14.20;1.00;;;;;;5156239;27;20556;-39
2023/09/02 05:27:36;;;;;;;3.83;2.90;;;14.20;1.00;;;;;;5155753;27;20466;-37
2023/09/02 05:36:28;;;;;;;3.10;2.80;;;14.40;1.00;;;;;;5152736;27;20497;-37
2023/09/02 05:38:54;;;;;;;6.40;3.37;;;14.50;1.00;;;;;;5154363;27;20459;-37
2023/09/02 05:41:19;;;;;;;5.00;3.37;;;14.50;1.00;;;;;;5153481;27;20187;-37
2023/09/02 05:43:45;;;;;;;4.70;3.30;;;14.50;1.00;;;;;;5153530;27;20205;-38
2023/09/02 05:46:10;;;;;;;4.00;2.80;;;14.60;1.00;;;;;;5154870;27;20174;-37
2023/09/02 05:48:36;;;;;;;4.30;3.30;;;14.70;1.00;;;;;;5156135;27;20238;-37
2023/09/02 05:51:02;;;;;;;4.50;3.40;;;14.70;1.00;;;;;;5156610;27;20217;-36
2023/09/02 05:53:29;;;;;;;3.80;3.10;;;14.80;1.00;;;;;;5157291;27;20216;-37
2023/09/02 05:55:57;;;;;;;4.93;2.73;;;14.90;1.00;;;;;;5156459;27;20273;-37
2023/09/02 05:58:27;;;;;;;4.90;3.07;;;15.10;1.00;;;;;;5157677;27;20404;-37
2023/09/02 06:00:52;;;;;;;3.10;2.70;;;15.20;1.00;;;;;;5158226;27;20503;-39
2023/09/02 06:03:18;;;;;;;3.93;3.23;;;15.30;1.00;;;;;;5157925;27;20527;-38
2023/09/02 06:05:44;;;;;;;3.97;2.73;;;15.50;1.00;;;;;;5155634;27;20182;-40
2023/09/02 06:08:09;;;;;;;4.00;3.10;;;15.60;1.00;;;;;;5155663;27;20190;-38
2023/09/02 06:10:36;;;;;;;3.70;2.87;;;15.80;99.90;;;;;;5155483;27;20213;-38
2023/09/02 06:13:02;;;;;;;3.40;3.10;;;16.10;99.90;;;;;;5154896;27;20178;-38
2023/09/02 06:15:28;;;;;;;3.70;3.00;;;16.30;99.90;;;;;;5154171;27;20853;-38
2023/09/02 06:17:53;;;;;;;5.40;3.00;;;16.60;99.90;;;;;;5156158;27;20436;-38
2023/09/02 06:20:20;;;;;;;4.10;3.13;;;16.80;99.90;;;;;;5155067;27;20189;-40
2023/09/02 06:22:46;;;;;;;4.00;3.60;;;17.10;99.90;;;;;;5155686;27;20183;-37
2023/09/02 06:25:12;;;;;;;3.60;3.30;;;17.30;99.90;;;;;;5156209;27;20829;-38
2023/09/02 06:27:38;;;;;;;4.20;3.80;;;17.50;99.90;;;;;;5137831;27;20503;-39
2023/09/02 06:30:04;;;;;;;3.17;2.70;;;17.70;95.50;;;;;;5158023;27;20459;-39
2023/09/02 06:32:30;;;;;;;4.70;3.77;;;17.90;62.40;;;;;;5158762;27;20188;-40
2023/09/02 06:34:56;;;;;;;3.70;3.20;;;18.10;2.60;;;;;;5160958;27;20491;-41
2023/09/02 06:37:21;;;;;;;7.20;3.20;;;18.30;1.00;;;;;;5162199;27;20210;-38
2023/09/02 06:39:54;;;;;;;3.80;3.10;;;18.40;1.00;;;;;;5159561;27;20221;-38
2023/09/02 06:42:20;;;;;;;4.23;3.53;;;18.40;1.00;;;;;;5160188;27;20272;-38
2023/09/02 06:44:47;;;;;;;4.43;3.10;;;18.70;1.00;;;;;;5159547;27;20506;-39
2023/09/02 06:47:14;;;;;;;4.50;3.37;;;18.80;99.90;;;;;;5141029;27;20520;-38
2023/09/02 06:49:39;;;;;;;4.03;3.60;;;18.90;99.90;;;;;;5159917;27;20696;-41
2023/09/02 06:52:05;;;;;;;4.87;4.00;;;19.00;99.90;;;;;;5159125;27;20535;-39
2023/09/02 06:54:31;;;;;;;10.33;4.13;;;19.00;99.90;;;;;;5159625;27;20266;-40
2023/09/02 06:56:56;;;;;;;3.97;3.53;;;19.20;19.40;;;;;;5161028;27;20598;-37
2023/09/02 06:59:25;;;;;;;4.30;3.07;;;19.30;1.00;;;;;;5160695;27;20262;-38
2023/09/02 07:01:51;;;;;;;4.83;3.10;;;19.60;1.00;;;;;;5160153;27;20185;-39
2023/09/02 07:04:17;;;;;;;4.13;3.13;;;19.70;99.90;;;;;;5160328;27;20406;-41
2023/09/02 07:06:43;;;;;;;5.10;3.90;;;19.90;99.90;;;;;;5158345;27;20424;-38
2023/09/02 07:09:09;;;;;;;3.80;2.90;;;20.10;1.00;;;;;;5156826;27;20533;-38
2023/09/02 07:11:34;;;;;;;4.20;3.17;;;20.30;1.00;;;;;;5158060;27;20214;-40
2023/09/02 07:14:00;;;;;;;4.37;3.50;;;20.50;99.90;;;;;;5158975;27;20170;-39
2023/09/02 07:16:26;;;;;;;4.87;3.67;;;20.80;99.90;;;;;;5157789;27;20170;-38
2023/09/02 07:18:52;;;;;;;3.77;3.13;;;21.10;98.20;;;;;;5156323;27;20179;-38
2023/09/02 07:21:22;;;;;;;3.43;2.73;;;21.30;99.90;;;;;;5158651;27;20591;-39
2023/09/02 07:23:48;;;;;;;5.73;3.50;;;21.50;99.90;;;;;;5158898;27;20492;-38
2023/09/02 07:26:14;;;;;;;3.20;2.80;;;21.70;99.90;;;;;;5159572;27;20438;-37
2023/09/02 07:28:42;;;;;;;4.33;3.43;;;21.60;1.00;;;;;;5158396;27;20745;-38
2023/09/02 07:31:10;;;;;;;3.30;2.73;;;21.60;28.70;;;;;;5159999;27;20624;-39
2023/09/02 07:33:36;;;;;;;4.00;3.60;;;21.70;99.90;;;;;;5159168;27;20438;-37
2023/09/02 07:36:12;;;;;;;4.13;3.13;;;21.90;1.00;;;;;;5159112;27;20505;-37
2023/09/02 07:38:39;;;;;;;4.70;2.77;;;22.00;1.00;;;;;;5158003;27;20196;-38
2023/09/02 07:41:04;;;;;;;4.20;2.80;;;22.30;1.00;;;;;;5157508;27;20440;-38
2023/09/02 07:43:30;;;;;;;3.93;2.90;;;22.60;13.60;;;;;;5141681;27;20446;-38
2023/09/02 07:45:57;;;;;;;3.20;2.23;;;22.70;99.90;;;;;;5160516;27;20271;-40
2023/09/02 07:48:23;;;;;;;3.67;2.80;;;22.60;1.00;;;;;;5158883;27;20424;-39
2023/09/02 07:50:48;;;;;;;4.40;3.10;;;22.60;1.00;;;;;;5158588;27;20471;-40
2023/09/02 07:53:14;;;;;;;2.83;2.53;;;23.00;1.00;;;;;;5140578;27;20484;-37
2023/09/02 07:55:40;;;;;;;3.77;2.80;;;23.30;99.90;;;;;;5158736;27;20257;-38
2023/09/02 07:58:06;;;;;;;3.50;3.20;;;23.20;99.90;;;;;;5159166;27;20424;-40
2023/09/02 08:00:35;;;;;;;3.43;2.90;;;23.30;99.90;;;;;;5158449;27;20251;-38
2023/09/02 08:03:01;;;;;;;3.80;2.50;;;23.90;19.40;;;;;;5141137;27;20492;-38
2023/09/02 08:05:27;;;;;;;4.30;2.47;;;24.60;1.00;;;;;;5160285;27;20427;-38
2023/09/02 08:07:52;;;;;;;4.63;2.43;;;25.40;1.00;;;;;;5159306;27;20412;-37
2023/09/02 08:10:18;;;;;;;2.70;2.50;;;25.70;99.90;;;;;;5157802;27;20187;-40
2023/09/02 08:12:45;;;;;;;2.37;2.10;;;26.00;99.90;;;;;;5155540;27;20198;-38
2023/09/02 08:15:12;;;;;;;4.57;3.23;;;26.40;99.90;;;;;;5136831;27;20198;-39
2023/09/02 08:17:39;;;;;;;3.30;3.00;;;26.90;99.90;;;;;;5155968;27;20840;-38
2023/09/02 08:20:06;;;;;;;3.77;2.57;;;27.20;99.90;;;;;;5155786;27;20465;-39
2023/09/02 08:22:31;;;;;;;2.53;2.33;;;26.90;85.00;;;;;;5157093;27;20894;-42
2023/09/02 08:24:57;;;;;;;4.77;3.07;;;27.30;71.70;;;;;;5157701;27;20481;-38
2023/09/02 08:27:24;;;;;;;3.40;2.63;;;27.20;41.70;;;;;;5158350;27;20194;-39
2023/09/02 08:29:50;;;;;;;2.90;2.43;;;28.10;16.60;;;;;;5139143;27;20505;-38
2023/09/02 08:32:16;;;;;;;3.63;3.33;;;28.90;17.10;;;;;;5136922;27;20459;-40
2023/09/02 08:34:41;;;;;;;2.93;2.40;;;29.70;1.00;;;;;;5158395;27;20412;-38
2023/09/02 08:37:07;;;;;;;3.77;3.10;;;30.30;1.00;;;;;;5157243;27;20603;-38
2023/09/02 08:39:33;;;;;;;3.47;2.90;;;30.40;1.00;;;;;;5155689;27;20205;-36
2023/09/02 08:41:59;;;;;;;2.77;2.57;;;30.80;1.00;;;;;;5154981;27;20186;-35
2023/09/02 08:44:32;;;;;;;3.20;2.43;;;30.80;1.00;;;;;;5155651;27;20261;-35
2023/09/02 08:47:00;;;;;;;2.50;2.30;;;31.10;1.00;;;;;;5154373;27;20411;-35
2023/09/02 08:49:25;;;;;;;2.67;2.33;;;31.50;1.00;;;;;;5135983;27;20533;-38
2023/09/02 08:51:52;;;;;;;3.53;2.70;;;32.30;1.00;;;;;;5154740;27;20441;-35
2023/09/02 08:54:18;;;;;;;4.07;2.70;;;32.30;1.00;;;;;;5135662;27;20242;-37
2023/09/02 08:56:44;;;;;;;2.20;1.93;;;32.30;1.00;;;;;;5156985;27;20806;-37
2023/09/02 08:59:10;;;;;;;3.20;2.27;;;32.50;1.00;;;;;;5157380;27;20443;-37
2023/09/02 09:01:42;;;;;;;3.03;1.90;;;32.40;1.00;;;;;;5157423;27;20511;-38
2023/09/02 09:04:08;;;;;;;3.43;2.50;;;33.10;1.00;;;;;;5156239;27;20179;-38
2023/09/02 09:06:36;;;;;;;6.67;2.30;;;33.20;1.00;;;;;;5156161;27;20725;-39
2023/09/02 09:09:02;;;;;;;3.40;2.30;;;33.40;1.00;;;;;;5136577;27;20500;-38
2023/09/02 09:11:31;;;;;;;2.90;2.33;;;33.90;1.00;;;;;;5155468;27;20535;-37
2023/09/02 09:13:58;;;;;;;3.97;3.33;;;33.90;1.00;;;;;;5137410;27;20390;-38
2023/09/02 09:16:31;;;;;;;3.33;3.03;;;33.70;1.00;;;;;;5156254;27;20464;-37
2023/09/02 09:18:57;;;;;;;2.67;2.33;;;33.10;1.00;;;;;;5152606;27;20468;-37
2023/09/02 09:21:23;;;;;;;2.80;2.30;;;33.20;1.00;;;;;;5153942;27;20857;-37
2023/09/02 09:23:49;;;;;;;2.43;2.07;;;33.40;1.00;;;;;;5155133;27;20395;-38
2023/09/02 09:26:15;;;;;;;2.47;2.10;;;33.60;1.00;;;;;;5155806;27;20406;-38
2023/09/02 09:28:54;;;;;;;4.60;2.37;;;33.70;1.00;;;;;;5157020;27;20382;-38
2023/09/02 09:31:20;;;;;;;2.97;2.30;;;33.00;1.00;;;;;;5157227;27;20843;-37
2023/09/02 09:33:50;;;;;;;2.67;2.40;;;32.50;1.00;;;;;;5156445;27;20401;-39
2023/09/02 09:36:17;;;;;;;2.67;2.20;;;31.40;1.00;;;;;;5134907;27;20471;-37
2023/09/02 09:38:42;;;;;;;2.40;2.20;;;31.10;1.00;;;;;;5136445;27;20436;-37
2023/09/02 09:41:09;;;;;;;4.60;2.33;;;31.00;1.00;;;;;;5135103;27;20410;-38
2023/09/02 09:43:35;;;;;;;3.30;2.33;;;30.40;1.00;;;;;;5135426;27;20277;-38
2023/09/02 09:46:01;;;;;;;2.13;1.93;;;29.90;1.00;;;;;;5136120;27;20733;-37
2023/09/02 09:48:26;;;;;;;2.97;2.67;;;30.10;1.00;;;;;;5133986;27;20461;-38
2023/09/02 09:50:52;;;;;;;2.43;2.20;;;30.70;1.00;;;;;;5135838;27;20223;-37
2023/09/02 09:53:18;;;;;;;2.87;2.20;;;31.10;1.00;;;;;;5132717;27;20206;-38
2023/09/02 09:55:43;;;;;;;3.70;2.83;;;30.70;1.00;;;;;;5137067;27;20183;-37
2023/09/02 09:58:09;;;;;;;3.83;2.80;;;31.30;1.00;;;;;;5134554;27;20607;-40
2023/09/02 10:00:35;;;;;;;2.80;2.20;;;32.30;1.00;;;;;;5133451;27;20286;-37
2023/09/02 10:03:01;;;;;;;2.20;1.90;;;32.20;1.00;;;;;;5134636;27;20371;-37
2023/09/02 10:05:31;;;;;;;3.13;2.50;;;32.30;1.00;;;;;;5133153;27;20428;-38
2023/09/02 10:08:05;;;;;;;2.70;2.10;;;32.80;1.00;;;;;;5133970;27;20545;-37
2023/09/02 10:10:38;;;;;;;2.67;2.40;;;33.50;1.00;;;;;;5135252;27;20584;-38
2023/09/02 10:13:05;;;;;;;3.50;2.40;;;33.80;1.00;;;;;;5136040;27;20734;-37
2023/09/02 10:15:32;;;;;;;3.20;2.40;;;34.50;1.00;;;;;;5132908;27;20747;-39
2023/09/02 10:18:01;;;;;;;4.90;2.43;;;35.50;1.00;;;;;;5134018;27;20717;-37
2023/09/02 10:20:31;;;;;;;2.10;1.90;;;36.80;1.00;;;;;;5133961;27;20459;-39
2023/09/02 10:23:03;;;;;;;2.67;2.23;;;38.00;1.00;;;;;;5134204;27;20702;-39
2023/09/02 10:25:44;;;;;;;2.40;2.00;;;37.30;1.00;;;;;;5131664;27;20404;-39
2023/09/02 10:28:14;;;;;;;3.07;2.00;;;36.70;1.00;;;;;;5113986;28;20436;-38
2023/09/02 10:30:51;;;;;;;2.20;1.80;;;37.50;1.00;;;;;;5129849;28;20503;-38
2023/09/02 10:33:23;;;;;;;2.17;1.97;;;38.20;1.00;;;;;;5112770;28;20441;-40
2023/09/02 10:36:00;;;;;;;2.20;1.67;;;38.60;1.00;;;;;;5112731;28;20465;-37
2023/09/02 10:38:42;;;;;;;2.97;1.80;;;38.90;1.00;;;;;;5110838;28;20900;-38
2023/09/02 10:41:13;;;;;;;4.23;1.90;;;39.10;1.00;;;;;;5112356;28;20444;-38
2023/09/02 10:43:40;;;;;;;2.23;1.93;;;39.40;1.00;;;;;;5112406;28;20424;-38
2023/09/02 10:46:07;;;;;;;2.20;2.00;;;38.90;1.00;;;;;;5113367;28;20649;-38
2023/09/02 10:48:34;;;;;;;2.27;1.90;;;39.80;1.00;;;;;;5111928;28;20425;-39
2023/09/02 10:51:00;;;;;;;2.70;1.53;;;40.40;1.00;;;;;;5113122;28;20776;-39
2023/09/02 10:53:48;;;;;;;2.00;1.80;;;40.80;1.00;;;;;;5113074;28;20516;-37
2023/09/02 10:56:24;;;;;;;2.17;1.67;;;40.10;1.00;;;;;;5113567;28;20410;-37
2023/09/02 10:58:49;;;;;;;3.17;2.33;;;40.70;1.00;;;;;;5112508;28;20806;-37
2023/09/02 11:01:15;;;;;;;2.23;1.90;;;41.30;1.00;;;;;;5113305;28;20429;-39
2023/09/02 11:03:52;;;;;;;2.17;1.70;;;42.10;1.00;;;;;;5113866;28;20192;-39
2023/09/02 11:06:18;;;;;;;3.43;2.10;;;42.60;1.00;;;;;;5110864;28;20183;-41
2023/09/02 11:08:53;;;;;;;2.33;2.10;;;43.70;1.00;;;;;;5111607;28;20793;-38
2023/09/02 11:11:20;;;;;;;2.07;1.87;;;44.10;1.00;;;;;;5093067;28;20554;-40
2023/09/02 11:14:07;;;;;;;2.50;2.30;;;44.40;1.00;;;;;;5113233;28;20416;-40
2023/09/02 11:16:38;;;;;;;1.63;1.53;;;45.20;1.00;;;;;;5115055;28;20414;-39
2023/09/02 11:19:08;;;;;;;2.20;2.00;;;45.30;1.00;;;;;;5115372;28;20704;-40
2023/09/02 11:21:43;;;;;;;2.17;1.90;;;45.50;1.00;;;;;;5113822;27;20745;-39
2023/09/02 11:24:19;;;;;;;2.17;1.97;;;44.50;1.00;;;;;;5114088;28;20500;-37
2023/09/02 11:26:52;;;;;;;2.10;1.90;;;43.40;1.00;;;;;;5115446;27;20409;-40
2023/09/02 11:29:22;;;;;;;3.00;1.80;;;42.50;1.00;;;;;;5113732;28;20409;-41
2023/09/02 11:32:08;;;;;;;2.27;2.00;;;41.60;1.00;;;;;;5117054;28;20463;-39
2023/09/02 11:34:34;;;;;;;2.53;1.93;;;40.90;1.00;;;;;;5115554;28;20426;-39
2023/09/02 11:37:03;;;;;;;2.20;2.00;;;40.10;1.00;;;;;;5115095;28;20751;-38
2023/09/02 11:39:30;;;;;;;2.10;1.73;;;41.00;1.00;;;;;;5116412;28;20426;-41
2023/09/02 11:42:12;;;;;;;2.60;1.93;;;41.40;1.00;;;;;;5116137;28;20484;-41
2023/09/02 11:44:38;;;;;;;2.30;2.10;;;42.00;1.00;;;;;;5116406;28;20420;-42
2023/09/02 11:47:05;;;;;;;2.20;1.97;;;42.50;1.00;;;;;;5114938;28;20565;-41
2023/09/02 11:49:30;;;;;;;2.37;2.17;;;43.20;1.00;;;;;;5115775;28;20402;-41
2023/09/02 11:51:57;;;;;;;3.40;2.30;;;41.90;1.00;;;;;;5114667;28;20705;-41
2023/09/02 11:54:22;;;;;;;2.70;1.77;;;41.20;1.00;;;;;;5115218;28;20418;-39
2023/09/02 11:56:58;;;;;;;2.20;1.80;;;40.60;1.00;;;;;;5116667;28;20749;-39
2023/09/02 11:59:24;;;;;;;1.80;1.70;;;41.80;1.00;;;;;;5115918;28;20194;-40
2023/09/02 12:02:09;;;;;;;1.67;1.57;;;43.00;1.00;;;;;;5115986;28;20462;-38
2023/09/02 12:04:39;;;;;;;2.00;1.80;;;43.80;1.00;;;;;;5115642;28;20410;-40
2023/09/02 12:07:06;;;;;;;4.07;1.97;;;44.70;1.00;;;;;;5114235;28;20425;-40
2023/09/02 12:09:31;;;;;;;2.10;1.77;;;45.30;1.00;;;;;;5114270;28;20509;-39
2023/09/02 12:11:58;;;;;;;2.40;2.20;;;45.70;1.00;;;;;;5114157;28;20524;-40
2023/09/02 12:14:24;;;;;;;2.80;2.03;;;44.60;1.00;;;;;;5113107;28;20320;-41
2023/09/02 12:16:50;;;;;;;3.63;2.67;;;43.90;1.00;;;;;;5115618;28;20516;-39
2023/09/02 12:19:16;;;;;;;3.73;2.53;;;41.60;1.00;;;;;;5113683;28;20184;-39
2023/09/02 12:21:42;;;;;;;2.20;2.00;;;38.70;1.00;;;;;;5115015;28;20469;-43
2023/09/02 12:24:08;;;;;;;2.30;2.03;;;37.60;1.00;;;;;;5115485;28;20418;-40
2023/09/02 12:26:48;;;;;;;2.00;1.80;;;38.00;1.00;;;;;;5113278;28;20195;-43
2023/09/02 12:29:18;;;;;;;2.43;2.23;;;39.20;1.00;;;;;;5115960;28;20175;-41
2023/09/02 12:31:55;;;;;;;3.50;2.23;;;40.50;1.00;;;;;;5114420;28;20417;-41
2023/09/02 12:34:24;;;;;;;2.30;2.10;;;41.70;1.00;;;;;;5114967;28;20500;-40
2023/09/02 12:36:50;;;;;;;3.20;2.80;;;42.50;1.00;;;;;;5115525;28;20952;-39
2023/09/02 12:39:23;;;;;;;2.90;2.60;;;43.70;1.00;;;;;;5114708;28;20425;-40
2023/09/02 12:41:48;;;;;;;2.03;1.90;;;44.50;1.00;;;;;;5116840;28;20468;-41
2023/09/02 12:44:20;;;;;;;2.43;2.23;;;44.30;1.00;;;;;;5117284;28;20711;-42
2023/09/02 12:46:47;;;;;;;2.57;2.30;;;43.50;1.00;;;;;;5116161;28;20258;-38
2023/09/02 12:49:16;;;;;;;2.40;2.20;;;43.00;1.00;;;;;;5115942;28;20530;-44
2023/09/02 12:51:42;;;;;;;2.50;2.30;;;42.50;1.00;;;;;;5115454;28;20418;-39
2023/09/02 12:54:12;;;;;;;2.50;2.30;;;43.40;1.00;;;;;;5114561;28;20651;-39
2023/09/02 12:56:38;;;;;;;2.73;2.20;;;44.10;1.00;;;;;;5110225;28;20513;-42
2023/09/02 12:59:04;;;;;;;2.30;2.10;;;43.60;1.00;;;;;;5114235;28;20449;-39
2023/09/02 13:01:30;;;;;;;2.60;1.93;;;43.80;1.00;;;;;;5114579;28;20468;-41
2023/09/02 13:04:00;;;;;;;2.83;2.00;;;44.40;1.00;;;;;;5112268;28;20445;-40
2023/09/02 13:06:27;;;;;;;2.20;1.93;;;44.70;1.00;;;;;;5113816;28;20413;-41
2023/09/02 13:08:54;;;;;;;2.33;2.13;;;43.50;1.00;;;;;;5114487;28;20453;-41
2023/09/02 13:11:20;;;;;;;2.30;1.90;;;44.50;1.00;;;;;;5115313;28;20417;-39